Warner, New Hampshire
Current Conditions -  °F | °C
As of 12:51 PM on Saturday 20 Dec 2014 (Local Time) from KCON Reporting Station
Clear Clear  
Wind Chill:   Ceiling: Unl
Heat Index:   Visibility: 10mi
Dew Point: -8°   Wind: 0mph
Humidity: 52%   Direction: NA
Pressure: 30.27"   Gusts: NA
Location:  43.28°N, 71.82°W
Report Text: KCON 201751Z AUTO 00000KT 10SM CLR 01/M08 A3027 RMK AO2 SLP254 T00111078 10017 21089 56015
Loading
Personal Weather Stations






























Interactive Weather Map New forecast layout! Learn more

10-Day Weather Forecast

Advertisements
Track Severe Weather on mobile